createdAt,value
2022-10-01T00:42:53.853Z,41.3
2022-10-01T01:12:55.923Z,41.3
2022-10-01T01:45:57.830Z,40.2
2022-10-01T02:18:59.752Z,41.9
2022-10-01T02:49:01.606Z,41.9
2022-10-01T03:30:04.117Z,41.3
2022-10-01T04:01:06.167Z,40.8
2022-10-01T04:37:08.377Z,41.3
2022-10-01T05:07:10.156Z,40.8
2022-10-01T05:37:12.148Z,41.9
2022-10-01T06:09:14.148Z,41.3
2022-10-01T06:41:16.310Z,42.4
2022-10-01T07:11:18.355Z,43.5
2022-10-01T07:41:20.357Z,44
2022-10-01T08:11:22.200Z,45.1
2022-10-01T08:43:24.385Z,46.7
2022-10-01T09:14:26.417Z,47.2
2022-10-01T09:48:28.544Z,47.2
2022-10-01T10:18:30.531Z,48.3
2022-10-01T10:50:32.657Z,48.3
2022-10-01T11:20:34.668Z,47.2
2022-10-01T11:51:36.647Z,48.9
2022-10-01T12:22:38.514Z,48.9
2022-10-01T12:53:40.448Z,49.9
2022-10-01T13:24:42.492Z,50.5
2022-10-01T13:57:44.506Z,51
2022-10-01T14:28:46.483Z,50.5
2022-10-01T15:02:48.488Z,48.9
2022-10-01T15:32:50.402Z,49.4
2022-10-01T16:02:52.311Z,49.4
2022-10-01T16:34:54.328Z,48.3
2022-10-01T17:04:56.012Z,48.9
2022-10-01T17:36:58.043Z,47.8
2022-10-01T18:07:00.130Z,46.2
2022-10-01T18:37:01.829Z,45.6
2022-10-01T19:07:03.702Z,45.6
2022-10-01T19:37:05.954Z,47.2
2022-10-01T20:07:07.598Z,46.2
2022-10-01T20:37:09.526Z,47.2
2022-10-01T21:07:11.418Z,47.8
2022-10-01T21:39:13.326Z,47.8
2022-10-01T22:15:15.581Z,46.7
2022-10-01T22:52:17.881Z,46.2
2022-10-01T23:23:19.908Z,46.7
2022-10-01T23:53:21.662Z,46.2
